Time;durP1;ratioP1;P1;durP2;ratioP2;P2;SDS_P1;SDS_P2;PMS_P1;PMS_P2;Temp;Humidity;BMP_temperature;BMP_pressure;BME280_temperature;BME280_humidity;BME280_pressure;Samples;Min_cycle;Max_cycle;Signal;HPM_P1;HPM_P2
2022/04/28 00:00:00;;;;;;;;;;;7.00;1.00;;;;;;5074842;28;19912;-75
2022/04/28 00:02:29;;;;;;;;;;;6.90;1.00;;;;;;5073603;28;19912;-75
2022/04/28 00:04:55;;;;;;;;;;;7.00;1.00;;;;;;5074544;28;19939;-75
2022/04/28 00:07:29;;;;;;;;;;;7.00;1.00;;;;;;5106052;28;20007;-75
2022/04/28 00:09:54;;;;;;;;;;;7.00;1.00;;;;;;5074875;28;19909;-75
2022/04/28 00:12:23;;;;;;;;;;;7.00;1.00;;;;;;5074403;28;19942;-75
2022/04/28 00:14:53;;;;;;;;;;;7.00;1.00;;;;;;5076234;28;20260;-75
2022/04/28 00:20:29;;;;;;;;;;;7.00;1.00;;;;;;5072586;28;19919;-80
2022/04/28 00:22:59;;;;;;;;;;;7.00;1.00;;;;;;5074341;28;19909;-80
2022/04/28 00:25:41;;;;;;;;;;;7.00;1.00;;;;;;5067955;28;19917;-80
2022/04/28 00:28:11;;;;;;;;;;;7.00;1.00;;;;;;5069056;28;19916;-80
2022/04/28 00:30:36;;;;;;;;;;;7.00;1.00;;;;;;5073742;28;19916;-80
2022/04/28 00:33:05;;;;;;;;;;;7.00;1.00;;;;;;5074523;28;20046;-75
2022/04/28 00:35:30;;;;;;;;;;;7.00;1.00;;;;;;5073902;28;19948;-75
2022/04/28 00:37:56;;;;;;;;;;;7.00;1.00;;;;;;5074307;28;19951;-76
2022/04/28 00:40:22;;;;;;;;;;;6.90;1.00;;;;;;5073917;28;19913;-75
2022/04/28 00:43:23;;;;;;;;;;;6.90;1.00;;;;;;5074186;28;19974;-75
2022/04/28 00:45:53;;;;;;;;;;;7.00;1.00;;;;;;5073824;28;19921;-75
2022/04/28 00:51:17;;;;;;;;;;;6.90;1.00;;;;;;5074274;28;20432;-80
2022/04/28 00:53:48;;;;;;;;;;;6.90;1.00;;;;;;5073888;28;19995;-80
2022/04/28 00:56:17;;;;;;;;;;;6.90;1.00;;;;;;5072121;28;19908;-80
2022/04/28 00:58:49;;;;;;;;;;;6.90;1.00;;;;;;5073821;28;19995;-80
2022/04/28 01:01:29;;;;;;;;;;;6.90;1.00;;;;;;5060180;28;20005;-80
2022/04/28 01:04:17;;;;;;;;;;;6.90;1.00;;;;;;5073895;28;19919;-80
2022/04/28 01:06:47;;;;;;;;;;;6.80;1.00;;;;;;5073711;28;20425;-80
2022/04/28 01:09:17;;;;;;;;;;;6.80;1.00;;;;;;5073596;28;19915;-80
2022/04/28 01:11:47;;;;;;;;;;;6.80;1.00;;;;;;5074316;28;19912;-80
2022/04/28 01:14:17;;;;;;;;;;;6.80;1.00;;;;;;5073289;28;20389;-80
2022/04/28 01:16:47;;;;;;;;;;;6.80;1.00;;;;;;5073504;28;19909;-80
2022/04/28 01:19:41;;;;;;;;;;;6.80;1.00;;;;;;5074925;28;19908;-80
2022/04/28 01:22:11;;;;;;;;;;;6.70;1.00;;;;;;5075254;28;19920;-80
2022/04/28 01:24:36;;;;;;;;;;;6.70;1.00;;;;;;5077459;28;19912;-81
2022/04/28 01:27:06;;;;;;;;;;;6.70;1.00;;;;;;5109649;28;19912;-80
2022/04/28 01:29:32;;;;;;;;;;;;;;;;;;5077293;28;19926;-80
2022/04/28 01:32:01;;;;;;;;;;;6.60;1.00;;;;;;5077544;28;19916;-75
2022/04/28 01:34:47;;;;;;;;;;;6.50;1.00;;;;;;5069800;28;19909;-80
2022/04/28 01:37:17;;;;;;;;;;;6.50;1.00;;;;;;5098423;28;19913;-80
2022/04/28 01:39:47;;;;;;;;;;;6.50;1.00;;;;;;5077064;28;20359;-80
2022/04/28 01:42:17;;;;;;;;;;;6.50;1.00;;;;;;5076899;28;19920;-80
2022/04/28 01:44:59;;;;;;;;;;;6.40;1.00;;;;;;5076871;28;19916;-80
2022/04/28 01:47:29;;;;;;;;;;;6.40;1.00;;;;;;5077011;28;19913;-80
2022/04/28 01:50:05;;;;;;;;;;;6.30;1.00;;;;;;5057157;28;19909;-80
2022/04/28 01:55:41;;;;;;;;;;;6.20;1.00;;;;;;5078603;28;19916;-80
2022/04/28 01:58:17;;;;;;;;;;;6.10;1.00;;;;;;5057020;28;19913;-80
2022/04/28 02:00:47;;;;;;;;;;;6.10;1.00;;;;;;5061494;28;19913;-80
2022/04/28 02:03:17;;;;;;;;;;;6.10;1.00;;;;;;5077136;28;19909;-80
2022/04/28 02:06:11;;;;;;;;;;;6.00;1.00;;;;;;5076572;28;20000;-80
2022/04/28 02:08:41;;;;;;;;;;;6.00;1.00;;;;;;5069054;28;19913;-80
2022/04/28 02:11:17;;;;;;;;;;;6.00;1.00;;;;;;5065205;28;19912;-80
2022/04/28 02:13:42;;;;;;;;;;;5.90;1.00;;;;;;5076651;28;19966;-80
2022/04/28 02:16:11;;;;;;;;;;;5.90;1.00;;;;;;5076346;28;19916;-80
2022/04/28 02:18:36;;;;;;;;;;;5.90;1.00;;;;;;5077022;28;20241;-75
2022/04/28 02:21:02;;;;;;;;;;;5.90;1.00;;;;;;5076994;28;19908;-75
2022/04/28 02:23:28;;;;;;;;;;;5.80;1.00;;;;;;5076634;28;19909;-75
2022/04/28 02:25:59;;;;;;;;;;;;;;;;;;5086468;28;19913;-75
2022/04/28 02:28:29;;;;;;;;;;;5.70;1.00;;;;;;5076669;28;19913;-75
2022/04/28 02:30:54;;;;;;;;;;;5.70;1.00;;;;;;5075303;28;19916;-75
2022/04/28 02:33:41;;;;;;;;;;;5.60;1.00;;;;;;5075358;28;19940;-80
2022/04/28 02:36:13;;;;;;;;;;;;;;;;;;5076220;28;19913;-80
2022/04/28 02:38:41;;;;;;;;;;;5.60;1.00;;;;;;5076314;28;19908;-80
2022/04/28 02:41:11;;;;;;;;;;;5.60;1.00;;;;;;5075995;28;19912;-80
2022/04/28 02:43:41;;;;;;;;;;;5.60;1.00;;;;;;5076013;28;20375;-80
2022/04/28 02:46:11;;;;;;;;;;;5.50;1.00;;;;;;5075590;28;19919;-80
2022/04/28 02:48:41;;;;;;;;;;;5.50;1.00;;;;;;5076515;28;20368;-80
2022/04/28 02:51:11;;;;;;;;;;;5.50;1.00;;;;;;5075425;28;19920;-80
2022/04/28 02:53:41;;;;;;;;;;;5.50;1.00;;;;;;5081821;28;19919;-80
2022/04/28 02:56:11;;;;;;;;;;;5.40;1.00;;;;;;5083017;28;19912;-80
2022/04/28 02:58:59;;;;;;;;;;;5.40;1.00;;;;;;5075614;28;19999;-80
2022/04/28 03:01:47;;;;;;;;;;;5.40;1.00;;;;;;5070942;28;19912;-80
2022/04/28 03:04:41;;;;;;;;;;;5.40;1.00;;;;;;5074716;28;19920;-80
2022/04/28 03:13:05;;;;;;;;;;;5.30;1.00;;;;;;5075139;28;19939;-80
2022/04/28 03:18:34;;;;;;;;;;;5.30;1.00;;;;;;5075042;28;19961;-80
2022/04/28 03:21:29;;;;;;;;;;;5.20;1.00;;;;;;5075508;28;19912;-80
2022/04/28 03:24:05;;;;;;;;;;;5.20;1.00;;;;;;5075187;28;20370;-80
2022/04/28 03:26:41;;;;;;;;;;;5.20;1.00;;;;;;5074884;28;19919;-80
2022/04/28 03:29:11;;;;;;;;;;;5.10;1.00;;;;;;5075229;28;19920;-80
2022/04/28 03:31:41;;;;;;;;;;;5.10;1.00;;;;;;5074887;28;19923;-80
2022/04/28 03:34:24;;;;;;;;;;;5.10;1.00;;;;;;5055323;28;19919;-80
2022/04/28 03:37:05;;;;;;;;;;;5.00;1.00;;;;;;5058002;28;20122;-80
2022/04/28 03:42:35;;;;;;;;;;;5.00;1.00;;;;;;5074250;28;20383;-80
2022/04/28 03:45:11;;;;;;;;;;;4.90;1.00;;;;;;5061752;28;19960;-80
2022/04/28 03:47:41;;;;;;;;;;;4.90;1.00;;;;;;5074456;28;19959;-75
2022/04/28 03:50:11;;;;;;;;;;;4.90;1.00;;;;;;5074909;28;19955;-80
2022/04/28 03:52:42;;;;;;;;;;;4.90;1.00;;;;;;5074496;28;19947;-80
2022/04/28 03:55:11;;;;;;;;;;;4.90;1.00;;;;;;5074983;28;20323;-80
2022/04/28 03:57:41;;;;;;;;;;;4.80;1.00;;;;;;5073851;28;19920;-80
2022/04/28 04:00:11;;;;;;;;;;;4.80;1.00;;;;;;5074740;28;19916;-80
2022/04/28 04:02:41;;;;;;;;;;;4.90;1.00;;;;;;5074207;28;19932;-80
2022/04/28 04:05:41;;;;;;;;;;;4.90;1.00;;;;;;5069341;28;20353;-80
2022/04/28 04:08:11;;;;;;;;;;;4.90;1.00;;;;;;5073166;28;19908;-80
2022/04/28 04:10:37;;;;;;;;;;;4.80;1.00;;;;;;5073762;28;19912;-80
2022/04/28 04:13:11;;;;;;;;;;;4.90;1.00;;;;;;5074645;28;19920;-80
2022/04/28 04:15:41;;;;;;;;;;;4.90;1.00;;;;;;5074266;28;19962;-80
2022/04/28 04:18:35;;;;;;;;;;;4.80;1.00;;;;;;5072204;28;19983;-80
2022/04/28 04:21:11;;;;;;;;;;;4.80;1.00;;;;;;5075722;28;19952;-74
2022/04/28 04:23:36;;;;;;;;;;;4.80;1.00;;;;;;5074082;28;19909;-75
2022/04/28 04:26:11;;;;;;;;;;;;;;;;;;5085684;28;19909;-75
2022/04/28 04:28:47;;;;;;;;;;;4.90;1.00;;;;;;5075083;28;19915;-75
2022/04/28 04:34:11;;;;;;;;;;;4.90;1.00;;;;;;5074381;28;19935;-80
2022/04/28 04:36:37;;;;;;;;;;;4.90;1.00;;;;;;5072564;28;19951;-80
2022/04/28 04:39:11;;;;;;;;;;;4.90;1.00;;;;;;5072470;28;19948;-80
2022/04/28 04:41:41;;;;;;;;;;;5.00;1.00;;;;;;5072644;28;19915;-80
2022/04/28 04:44:13;;;;;;;;;;;5.00;1.00;;;;;;5073892;28;19919;-81
2022/04/28 04:46:41;;;;;;;;;;;5.00;1.00;;;;;;5060021;28;20007;-80
2022/04/28 04:49:41;;;;;;;;;;;5.00;1.00;;;;;;5074086;28;19912;-80
2022/04/28 04:52:41;;;;;;;;;;;5.10;1.00;;;;;;5066840;28;19945;-80
2022/04/28 04:55:11;;;;;;;;;;;5.10;1.00;;;;;;5100242;28;19913;-76
2022/04/28 04:57:41;;;;;;;;;;;5.20;1.00;;;;;;5078142;28;19909;-75
2022/04/28 05:00:07;;;;;;;;;;;5.30;1.00;;;;;;5077898;28;20007;-76
2022/04/28 05:02:35;;;;;;;;;;;5.30;1.00;;;;;;5078304;28;19952;-76
2022/04/28 05:05:00;;;;;;;;;;;5.40;1.00;;;;;;5077379;28;19920;-71
2022/04/28 05:07:30;;;;;;;;;;;5.50;1.00;;;;;;5077879;28;19958;-71
2022/04/28 05:09:55;;;;;;;;;;;5.50;1.00;;;;;;5067826;28;19919;-71
2022/04/28 05:12:21;;;;;;;;;;;;;;;;;;5076664;28;19916;-71
2022/04/28 05:14:47;;;;;;;;;;;5.60;1.00;;;;;;5077097;28;19916;-71
2022/04/28 05:17:13;;;;;;;;;;;;;;;;;;5076565;28;19918;-71
2022/04/28 05:19:38;;;;;;;;;;;5.80;1.00;;;;;;5077901;28;19909;-71
2022/04/28 05:22:04;;;;;;;;;;;5.80;1.00;;;;;;5077315;28;19999;-71
2022/04/28 05:24:30;;;;;;;;;;;5.90;1.00;;;;;;5076976;28;20082;-71
2022/04/28 05:26:55;;;;;;;;;;;6.00;1.00;;;;;;5077284;28;19908;-71
2022/04/28 05:29:21;;;;;;;;;;;;;;;;;;5072676;28;19993;-71
2022/04/28 05:31:47;;;;;;;;;;;6.20;1.00;;;;;;5074894;28;20069;-71
2022/04/28 05:34:12;;;;;;;;;;;6.20;1.00;;;;;;5077046;28;19915;-70
2022/04/28 05:36:39;;;;;;;;;;;6.30;1.00;;;;;;5073878;28;19920;-71
2022/04/28 05:39:05;;;;;;;;;;;6.40;1.00;;;;;;5080622;28;19919;-71
2022/04/28 05:47:24;;;;;;;;;;;6.80;1.00;;;;;;5077005;28;19965;-83
2022/04/28 05:49:50;;;;;;;;;;;6.90;1.00;;;;;;5077155;28;19995;-74
2022/04/28 05:52:16;;;;;;;;;;;7.00;1.00;;;;;;5076417;28;19985;-74
2022/04/28 05:54:41;;;;;;;;;;;7.10;1.00;;;;;;5076991;28;19912;-74
2022/04/28 05:57:07;;;;;;;;;;;7.20;1.00;;;;;;5077003;28;20275;-74
2022/04/28 05:59:33;;;;;;;;;;;7.40;1.00;;;;;;5075891;28;19939;-73
2022/04/28 06:01:59;;;;;;;;;;;7.50;1.00;;;;;;5075809;28;19915;-74
2022/04/28 06:04:59;;;;;;;;;;;7.70;1.00;;;;;;5076415;28;19912;-81
2022/04/28 06:07:59;;;;;;;;;;;7.90;1.00;;;;;;5067059;28;19943;-78
2022/04/28 06:13:27;;;;;;;;;;;8.30;1.00;;;;;;5071336;28;19923;-82
2022/04/28 06:21:59;;;;;;;;;;;8.90;1.00;;;;;;5076178;28;20363;-69
2022/04/28 06:24:25;;;;;;;;;;;;;;;;;;5074518;28;19916;-69
2022/04/28 06:26:52;;;;;;;;;;;;;;;;;;5074230;28;19931;-69
2022/04/28 06:29:29;;;;;;;;;;;9.40;1.00;;;;;;5075963;28;19913;-75
2022/04/28 06:31:59;;;;;;;;;;;9.50;1.00;;;;;;5074450;28;20010;-74
2022/04/28 06:34:24;;;;;;;;;;;9.70;1.00;;;;;;5075981;28;19920;-74
2022/04/28 06:37:05;;;;;;;;;;;9.80;1.00;;;;;;5076595;28;19912;-75
2022/04/28 06:39:35;;;;;;;;;;;9.80;1.00;;;;;;5076516;28;19938;-75
2022/04/28 06:42:00;;;;;;;;;;;10.10;1.00;;;;;;5075778;28;19913;-74
2022/04/28 06:44:26;;;;;;;;;;;10.20;1.00;;;;;;5075568;28;20359;-74
2022/04/28 06:46:51;;;;;;;;;;;10.40;1.00;;;;;;5073699;28;19936;-75
2022/04/28 06:49:17;;;;;;;;;;;10.50;1.00;;;;;;5074579;28;19912;-75
2022/04/28 06:51:43;;;;;;;;;;;10.60;1.00;;;;;;5075240;28;19962;-82
2022/04/28 06:54:11;;;;;;;;;;;10.70;1.00;;;;;;5075166;28;19908;-82
2022/04/28 06:56:36;;;;;;;;;;;10.90;1.00;;;;;;5071713;28;20009;-81
2022/04/28 06:59:02;;;;;;;;;;;11.10;1.00;;;;;;5074875;28;20282;-82
2022/04/28 07:01:27;;;;;;;;;;;14.40;1.00;;;;;;5066608;28;20159;-82
2022/04/28 07:03:53;;;;;;;;;;;11.40;1.00;;;;;;5071459;28;20314;-82
2022/04/28 07:06:19;;;;;;;;;;;11.40;1.00;;;;;;5067609;28;19919;-75
2022/04/28 07:08:44;;;;;;;;;;;11.50;1.00;;;;;;5063416;28;19919;-75
2022/04/28 07:11:10;;;;;;;;;;;11.70;1.00;;;;;;5074118;28;20374;-75
2022/04/28 07:13:36;;;;;;;;;;;11.80;1.00;;;;;;5074317;28;20449;-75
2022/04/28 07:16:02;;;;;;;;;;;12.00;1.00;;;;;;5069752;28;20387;-75
2022/04/28 07:18:27;;;;;;;;;;;12.00;1.00;;;;;;5071031;28;19920;-75
2022/04/28 07:20:53;;;;;;;;;;;12.10;1.00;;;;;;5074434;28;19921;-81
2022/04/28 07:23:18;;;;;;;;;;;12.30;1.00;;;;;;5074598;28;19915;-81
2022/04/28 07:25:44;;;;;;;;;;;12.40;1.00;;;;;;5082014;28;20366;-82
2022/04/28 07:28:17;;;;;;;;;;;12.40;1.00;;;;;;5072518;28;20284;-81
2022/04/28 07:30:42;;;;;;;;;;;12.60;1.00;;;;;;5074406;28;20050;-81
2022/04/28 07:33:08;;;;;;;;;;;12.70;1.00;;;;;;5071320;28;19999;-81
2022/04/28 07:35:35;;;;;;;;;;;12.90;1.00;;;;;;5074810;28;19912;-81
2022/04/28 07:38:05;;;;;;;;;;;;;;;;;;5073992;28;20364;-81
2022/04/28 07:40:30;;;;;;;;;;;13.00;1.00;;;;;;5071780;28;20432;-81
2022/04/28 07:42:56;;;;;;;;;;;13.20;1.00;;;;;;5073969;28;19956;-81
2022/04/28 07:45:22;;;;;;;;;;;14.80;1.00;;;;;;5074064;28;19919;-81
2022/04/28 07:47:49;;;;;;;;;;;15.50;1.00;;;;;;5074198;28;19908;-81
2022/04/28 07:50:29;;;;;;;;;;;17.90;1.00;;;;;;5072702;28;19915;-81
2022/04/28 07:52:55;;;;;;;;;;;13.60;1.00;;;;;;5074183;28;19912;-81
2022/04/28 07:55:20;;;;;;;;;;;16.00;1.00;;;;;;5074435;28;19932;-81
2022/04/28 07:57:47;;;;;;;;;;;14.50;1.00;;;;;;5074183;28;20492;-81
2022/04/28 08:00:13;;;;;;;;;;;13.90;99.90;;;;;;5073848;28;19909;-81
2022/04/28 08:02:38;;;;;;;;;;;14.00;99.90;;;;;;5069288;28;20008;-81
2022/04/28 08:05:06;;;;;;;;;;;15.00;99.90;;;;;;5073628;28;19913;-81
2022/04/28 08:07:31;;;;;;;;;;;14.20;99.90;;;;;;5074205;28;19916;-81
2022/04/28 08:10:05;;;;;;;;;;;14.30;99.90;;;;;;5063725;28;19999;-81
2022/04/28 08:12:31;;;;;;;;;;;14.50;99.90;;;;;;5074236;28;19912;-81
2022/04/28 08:14:59;;;;;;;;;;;14.60;99.90;;;;;;5074190;28;20011;-81
2022/04/28 08:17:26;;;;;;;;;;;14.60;99.90;;;;;;5060681;28;20272;-81
2022/04/28 08:19:51;;;;;;;;;;;14.70;99.90;;;;;;5073351;28;19912;-80
2022/04/28 08:22:17;;;;;;;;;;;16.60;99.90;;;;;;5073916;28;19935;-80
2022/04/28 08:24:42;;;;;;;;;;;16.50;99.90;;;;;;5055738;28;19913;-80
2022/04/28 08:27:11;;;;;;;;;;;15.10;99.90;;;;;;5086912;28;19988;-81
2022/04/28 08:29:47;;;;;;;;;;;15.30;99.90;;;;;;5065699;28;19929;-75
2022/04/28 08:32:23;;;;;;;;;;;15.40;99.90;;;;;;5069783;28;19971;-78
2022/04/28 08:35:11;;;;;;;;;;;15.50;99.90;;;;;;5073144;28;19966;-75
2022/04/28 08:37:39;;;;;;;;;;;15.70;99.90;;;;;;5074118;28;19987;-70
2022/04/28 08:40:05;;;;;;;;;;;15.80;99.90;;;;;;5072262;28;19918;-70
2022/04/28 08:42:31;;;;;;;;;;;15.90;99.90;;;;;;5071438;28;19920;-70
2022/04/28 08:44:58;;;;;;;;;;;16.00;99.90;;;;;;5073174;28;19917;-70
2022/04/28 08:47:24;;;;;;;;;;;16.10;99.90;;;;;;5070031;28;19912;-70
2022/04/28 08:49:49;;;;;;;;;;;16.20;99.90;;;;;;5096246;28;19962;-70
2022/04/28 08:52:16;;;;;;;;;;;16.40;99.90;;;;;;5072293;28;19908;-76
2022/04/28 08:54:47;;;;;;;;;;;16.50;99.90;;;;;;5077449;28;20475;-80
2022/04/28 08:57:17;;;;;;;;;;;16.50;99.90;;;;;;5062263;28;19912;-82
2022/04/28 08:59:48;;;;;;;;;;;16.80;99.90;;;;;;5074365;28;19909;-83
2022/04/28 09:05:31;;;;;;;;;;;16.90;99.90;;;;;;5075130;28;19920;-83
2022/04/28 09:08:06;;;;;;;;;;;17.00;99.90;;;;;;5082783;28;19908;-79
2022/04/28 09:10:35;;;;;;;;;;;17.10;99.90;;;;;;5073606;28;19912;-79
2022/04/28 09:19:04;;;;;;;;;;;17.50;99.90;;;;;;5072108;28;20420;-78
2022/04/28 09:24:47;;;;;;;;;;;17.80;99.90;;;;;;5061150;28;19923;-83
2022/04/28 09:30:22;;;;;;;;;;;18.00;99.90;;;;;;5072981;28;19963;-83
2022/04/28 09:33:09;;;;;;;;;;;18.10;99.90;;;;;;5072342;28;19992;-83
2022/04/28 09:35:35;;;;;;;;;;;18.10;99.90;;;;;;5072785;28;19916;-83
2022/04/28 09:44:12;;;;;;;;;;;18.50;99.90;;;;;;5076823;28;19960;-83
2022/04/28 09:46:44;;;;;;;;;;;18.40;99.90;;;;;;5069333;28;19962;-84
2022/04/28 09:52:17;;;;;;;;;;;18.50;99.90;;;;;;5076417;28;20428;-79
2022/04/28 09:54:48;;;;;;;;;;;18.70;99.90;;;;;;5078913;28;19982;-79
2022/04/28 09:57:35;;;;;;;;;;;18.70;99.90;;;;;;5076687;28;20765;-78
2022/04/28 10:03:07;;;;;;;;;;;19.00;99.90;;;;;;5064405;28;19915;-78
2022/04/28 10:05:35;;;;;;;;;;;19.10;99.90;;;;;;5076753;28;20292;-78
2022/04/28 10:08:01;;;;;;;;;;;19.10;99.90;;;;;;5076633;28;20521;-79
2022/04/28 10:10:35;;;;;;;;;;;19.30;99.90;;;;;;5075131;28;19909;-78
2022/04/28 10:13:23;;;;;;;;;;;19.30;99.90;;;;;;5076239;28;19916;-78
2022/04/28 10:15:59;;;;;;;;;;;19.40;99.90;;;;;;5063160;28;20356;-77
2022/04/28 10:18:53;;;;;;;;;;;19.50;99.90;;;;;;5089059;28;19911;-79
2022/04/28 10:21:25;;;;;;;;;;;19.60;99.90;;;;;;5078688;28;19908;-78
2022/04/28 10:32:47;;;;;;;;;;;20.10;99.90;;;;;;5076498;28;19923;-78
2022/04/28 10:35:13;;;;;;;;;;;20.20;99.90;;;;;;5066934;28;19916;-75
2022/04/28 10:41:03;;;;;;;;;;;20.40;99.90;;;;;;5065641;28;19920;-82
2022/04/28 10:46:54;;;;;;;;;;;20.80;99.90;;;;;;5071961;28;19926;-83
2022/04/28 10:49:24;;;;;;;;;;;21.10;99.90;;;;;;5085387;28;19915;-83
2022/04/28 10:52:17;;;;;;;;;;;21.10;99.90;;;;;;5072214;28;19918;-83
2022/04/28 10:54:50;;;;;;;;;;;21.50;99.90;;;;;;5075265;28;19913;-74
2022/04/28 10:57:16;;;;;;;;;;;21.60;99.90;;;;;;5069101;28;20348;-74
2022/04/28 10:59:47;;;;;;;;;;;21.50;99.90;;;;;;5074455;28;19921;-75
2022/04/28 11:02:13;;;;;;;;;;;21.70;99.90;;;;;;5072238;28;19959;-74
2022/04/28 11:04:40;;;;;;;;;;;21.90;99.90;;;;;;5077112;28;19920;-74
2022/04/28 11:07:08;;;;;;;;;;;22.00;99.90;;;;;;5075490;28;20379;-74
2022/04/28 11:12:37;;;;;;;;;;;22.10;99.90;;;;;;5079457;28;20294;-82
2022/04/28 11:15:13;;;;;;;;;;;22.10;99.90;;;;;;5073995;28;19983;-82
2022/04/28 11:23:46;;;;;;;;;;;21.50;99.90;;;;;;5075529;28;19916;-75
2022/04/28 11:26:12;;;;;;;;;;;21.60;99.90;;;;;;5068269;28;20436;-75
2022/04/28 11:28:39;;;;;;;;;;;21.60;99.90;;;;;;5073297;28;19916;-74
2022/04/28 11:31:09;;;;;;;;;;;21.80;99.90;;;;;;5056213;28;19951;-75
2022/04/28 11:33:42;;;;;;;;;;;21.90;99.90;;;;;;5073065;28;20339;-75
2022/04/28 11:36:24;;;;;;;;;;;22.20;99.90;;;;;;5073843;28;19913;-74
2022/04/28 11:38:55;;;;;;;;;;;22.40;99.90;;;;;;5072428;28;19957;-74
2022/04/28 11:41:40;;;;;;;;;;;22.50;99.90;;;;;;5071409;28;20368;-75
2022/04/28 11:44:29;;;;;;;;;;;22.50;99.90;;;;;;5070838;28;19963;-75
2022/04/28 11:46:55;;;;;;;;;;;22.70;99.90;;;;;;5062756;28;20374;-74
2022/04/28 11:49:23;;;;;;;;;;;22.60;99.90;;;;;;5073448;28;19912;-74
2022/04/28 11:51:51;;;;;;;;;;;22.70;99.90;;;;;;5074309;28;19909;-74
2022/04/28 11:54:41;;;;;;;;;;;22.50;99.90;;;;;;5074631;28;19919;-75
2022/04/28 11:57:11;;;;;;;;;;;22.30;99.90;;;;;;5076920;28;19908;-74
2022/04/28 11:59:40;;;;;;;;;;;22.30;99.90;;;;;;5074764;28;19913;-73
2022/04/28 12:02:21;;;;;;;;;;;22.20;99.90;;;;;;5074460;28;19909;-74
2022/04/28 12:04:47;;;;;;;;;;;22.30;99.90;;;;;;5063390;28;19955;-73
2022/04/28 12:07:19;;;;;;;;;;;22.30;99.90;;;;;;5080056;28;19967;-74
2022/04/28 12:16:05;;;;;;;;;;;21.70;99.90;;;;;;5074613;28;19916;-80
2022/04/28 12:21:37;;;;;;;;;;;21.20;99.90;;;;;;5072435;28;19920;-80
2022/04/28 12:30:41;;;;;;;;;;;21.90;99.90;;;;;;5054168;28;19915;-81
2022/04/28 12:33:18;;;;;;;;;;;22.40;99.90;;;;;;5068158;28;19922;-81
2022/04/28 12:36:05;;;;;;;;;;;22.90;99.90;;;;;;5064835;28;20314;-81
2022/04/28 12:38:35;;;;;;;;;;;23.20;99.90;;;;;;5069718;28;20356;-81
2022/04/28 12:41:23;;;;;;;;;;;23.10;99.90;;;;;;5074070;28;19915;-81
2022/04/28 12:44:05;;;;;;;;;;;23.20;99.90;;;;;;5076662;28;19913;-81
2022/04/28 12:46:34;;;;;;;;;;;23.40;99.90;;;;;;5074110;28;19917;-81
2022/04/28 12:49:17;;;;;;;;;;;23.30;99.90;;;;;;5068878;28;20019;-81
2022/04/28 12:54:47;;;;;;;;;;;23.30;99.90;;;;;;5055534;28;19990;-81
2022/04/28 12:57:30;;;;;;;;;;;23.20;99.90;;;;;;5058545;28;19920;-81
2022/04/28 13:00:18;;;;;;;;;;;23.30;99.90;;;;;;5073722;28;19959;-81
2022/04/28 13:08:51;;;;;;;;;;;22.90;99.90;;;;;;5063402;28;19934;-73
2022/04/28 13:11:24;;;;;;;;;;;22.90;99.90;;;;;;5068513;28;19913;-73
2022/04/28 13:13:54;;;;;;;;;;;23.10;99.90;;;;;;5071871;28;19924;-73
2022/04/28 13:16:21;;;;;;;;;;;23.10;99.90;;;;;;5071885;28;20375;-72
2022/04/28 13:18:54;;;;;;;;;;;23.10;99.90;;;;;;5067001;28;19913;-72
2022/04/28 13:21:20;;;;;;;;;;;23.20;99.90;;;;;;5076664;28;20423;-75
2022/04/28 13:23:46;;;;;;;;;;;23.10;99.90;;;;;;5076646;28;19918;-71
2022/04/28 13:26:12;;;;;;;;;;;;;;;;;;5065343;28;19921;-72
2022/04/28 13:28:38;;;;;;;;;;;23.10;99.90;;;;;;5073711;28;20388;-77
2022/04/28 13:31:04;;;;;;;;;;;23.00;99.90;;;;;;5063671;28;20261;-72
2022/04/28 13:33:48;;;;;;;;;;;22.70;99.90;;;;;;5064546;28;19940;-91
2022/04/28 13:36:29;;;;;;;;;;;22.60;99.90;;;;;;5072568;28;19908;-91
2022/04/28 13:41:58;;;;;;;;;;;22.60;99.90;;;;;;5066090;28;19915;-88
2022/04/28 13:44:24;;;;;;;;;;;22.70;99.90;;;;;;5077303;28;19912;-75
2022/04/28 13:46:54;;;;;;;;;;;22.70;99.90;;;;;;5076857;28;19966;-75
2022/04/28 13:49:19;;;;;;;;;;;22.60;99.90;;;;;;5076895;28;19909;-74
2022/04/28 13:51:45;;;;;;;;;;;22.80;99.90;;;;;;5076981;28;20458;-74
2022/04/28 13:54:11;;;;;;;;;;;22.90;99.90;;;;;;5076590;28;19919;-73
2022/04/28 13:56:38;;;;;;;;;;;23.00;99.90;;;;;;5076904;28;19993;-74
2022/04/28 13:59:03;;;;;;;;;;;23.10;99.90;;;;;;5071197;28;19920;-74
2022/04/28 14:01:31;;;;;;;;;;;23.10;99.90;;;;;;5107903;28;19920;-74
2022/04/28 14:03:58;;;;;;;;;;;23.10;99.90;;;;;;5076467;28;19915;-75
2022/04/28 14:06:24;;;;;;;;;;;23.10;99.90;;;;;;5110153;27;19917;-75
2022/04/28 14:08:53;;;;;;;;;;;23.20;99.90;;;;;;5076989;28;20022;-76
2022/04/28 14:11:29;;;;;;;;;;;23.20;99.90;;;;;;5077135;28;19962;-78
2022/04/28 14:13:55;;;;;;;;;;;23.20;99.90;;;;;;5076298;28;19919;-79
2022/04/28 14:16:22;;;;;;;;;;;23.20;99.90;;;;;;5073835;28;19982;-81
2022/04/28 14:19:11;;;;;;;;;;;23.00;99.90;;;;;;5076583;28;19908;-80
2022/04/28 14:21:37;;;;;;;;;;;23.00;99.90;;;;;;5064392;28;20377;-73
2022/04/28 14:24:07;;;;;;;;;;;23.00;99.90;;;;;;5074684;28;19952;-79
2022/04/28 14:26:41;;;;;;;;;;;23.10;99.90;;;;;;5063202;28;19912;-80
2022/04/28 14:29:11;;;;;;;;;;;23.10;99.90;;;;;;5067393;28;19954;-79
2022/04/28 14:31:37;;;;;;;;;;;23.10;99.90;;;;;;5072472;28;20019;-79
2022/04/28 14:34:05;;;;;;;;;;;23.20;99.90;;;;;;5067607;28;19972;-78
2022/04/28 14:36:35;;;;;;;;;;;23.20;99.90;;;;;;5070577;28;19958;-79
2022/04/28 14:39:05;;;;;;;;;;;23.20;99.90;;;;;;5075482;28;19908;-78
2022/04/28 14:41:31;;;;;;;;;;;23.20;99.90;;;;;;5073763;28;19958;-77
2022/04/28 14:43:56;;;;;;;;;;;23.20;99.90;;;;;;5069524;28;19913;-77
2022/04/28 14:46:25;;;;;;;;;;;23.30;99.90;;;;;;5073588;28;19916;-77
2022/04/28 14:54:23;;;;;;;;;;;23.70;99.90;;;;;;5061380;28;19962;-77
2022/04/28 14:57:11;;;;;;;;;;;23.70;99.90;;;;;;5065802;28;19920;-78
2022/04/28 14:59:41;;;;;;;;;;;23.70;99.90;;;;;;5064168;28;19915;-78
2022/04/28 15:02:12;;;;;;;;;;;23.70;99.90;;;;;;5073690;28;19920;-78
2022/04/28 15:04:53;;;;;;;;;;;23.90;99.90;;;;;;5075574;28;19912;-78
2022/04/28 15:07:30;;;;;;;;;;;24.30;99.90;;;;;;5066365;28;19916;-78
2022/04/28 15:10:12;;;;;;;;;;;25.40;99.90;;;;;;5075566;28;20389;-79
2022/04/28 15:12:43;;;;;;;;;;;26.40;99.90;;;;;;5061126;28;19997;-77
2022/04/28 15:15:29;;;;;;;;;;;26.60;99.90;;;;;;5071874;28;19995;-78
2022/04/28 15:17:55;;;;;;;;;;;28.40;99.90;;;;;;5072136;28;19912;-78
2022/04/28 15:20:20;;;;;;;;;;;30.40;99.90;;;;;;5068755;28;20364;-78
2022/04/28 15:23:17;;;;;;;;;;;32.40;99.90;;;;;;5066888;28;19981;-78
2022/04/28 15:25:43;;;;;;;;;;;33.60;99.90;;;;;;5075736;28;19912;-79
2022/04/28 15:28:12;;;;;;;;;;;34.20;99.90;;;;;;5073984;28;19919;-78
2022/04/28 15:30:47;;;;;;;;;;;35.60;99.90;;;;;;5075145;28;19909;-78
2022/04/28 15:33:13;;;;;;;;;;;36.00;99.90;;;;;;5075294;28;19916;-78
2022/04/28 15:35:41;;;;;;;;;;;37.20;99.90;;;;;;5075072;28;19916;-78
2022/04/28 15:38:18;;;;;;;;;;;37.60;99.90;;;;;;5060711;28;19952;-78
2022/04/28 15:40:47;;;;;;;;;;;37.60;99.90;;;;;;5074030;28;19912;-78
2022/04/28 15:43:23;;;;;;;;;;;38.40;99.90;;;;;;5067067;28;19913;-79
2022/04/28 15:45:49;;;;;;;;;;;38.70;99.90;;;;;;5070102;28;20248;-79
2022/04/28 15:48:17;;;;;;;;;;;38.80;99.90;;;;;;5056559;28;19920;-79
2022/04/28 15:50:43;;;;;;;;;;;39.30;99.90;;;;;;5063337;28;19916;-78
2022/04/28 15:53:10;;;;;;;;;;;39.60;99.90;;;;;;5069499;28;19920;-79
2022/04/28 15:55:35;;;;;;;;;;;40.20;99.90;;;;;;5062829;28;19912;-78
2022/04/28 15:58:12;;;;;;;;;;;40.60;99.90;;;;;;5073379;28;20020;-81
2022/04/28 16:03:59;;;;;;;;;;;41.10;99.90;;;;;;5063961;28;19975;-89
2022/04/28 16:06:30;;;;;;;;;;;40.70;99.90;;;;;;5071116;28;19947;-82
2022/04/28 16:09:01;;;;;;;;;;;40.80;99.90;;;;;;5068388;28;19912;-83
2022/04/28 16:11:42;;;;;;;;;;;40.80;99.90;;;;;;5059036;28;19912;-80
2022/04/28 16:14:08;;;;;;;;;;;41.00;99.90;;;;;;5074460;28;19919;-80
2022/04/28 16:16:36;;;;;;;;;;;40.90;99.90;;;;;;5073741;28;19912;-80
2022/04/28 16:19:04;;;;;;;;;;;41.00;99.90;;;;;;5073670;28;21402;-80
2022/04/28 16:21:42;;;;;;;;;;;41.10;99.90;;;;;;5073649;28;19908;-81
2022/04/28 16:24:24;;;;;;;;;;;41.50;99.90;;;;;;5069914;28;19908;-81
2022/04/28 16:29:53;;;;;;;;;;;41.20;99.90;;;;;;5073976;28;19919;-82
2022/04/28 16:32:41;;;;;;;;;;;41.40;99.90;;;;;;5074224;28;19913;-82
2022/04/28 16:35:18;;;;;;;;;;;41.10;99.90;;;;;;5073666;28;19955;-83
2022/04/28 16:37:47;;;;;;;;;;;41.20;99.90;;;;;;5062126;28;19919;-82
2022/04/28 16:40:30;;;;;;;;;;;41.10;99.90;;;;;;5073834;28;19908;-82
2022/04/28 16:49:03;;;;;;;;;;;;;;;;;;5066140;28;19919;-77
2022/04/28 16:51:29;;;;;;;;;;;39.00;99.90;;;;;;5058937;28;19999;-77
2022/04/28 16:54:00;;;;;;;;;;;38.70;99.90;;;;;;5072412;28;19912;-76
2022/04/28 16:56:27;;;;;;;;;;;38.90;99.90;;;;;;5069880;28;19916;-77
2022/04/28 16:58:54;;;;;;;;;;;38.90;99.90;;;;;;5068438;28;20319;-75
2022/04/28 17:04:27;;;;;;;;;;;38.80;99.90;;;;;;5073140;28;19919;-76
2022/04/28 17:06:54;;;;;;;;;;;38.00;99.90;;;;;;5080007;28;19918;-75
2022/04/28 17:09:21;;;;;;;;;;;37.00;99.90;;;;;;5060591;28;20371;-77
2022/04/28 17:11:47;;;;;;;;;;;35.60;99.90;;;;;;5074038;28;19986;-82
2022/04/28 17:17:00;;;;;;;;;;;34.00;99.90;;;;;;5073233;28;20506;-82
2022/04/28 17:22:16;;;;;;;;;;;32.90;99.90;;;;;;5073193;28;19920;-71